Rankin Inlet Airport Rankin Inlet CA
ICAO: CYRT
IATA: YRT
Category: Medium
Scheduled Services: Yes

Elevation: 94 ft
TransAlt. 18000 ft.

Airport Communications:
MF RDO:122.2
VDF:122.2
ARCTIC RDO:126.7
RDO:122.2

CYRT Zoom In..

Runways:

(A) RW 13 length 6000 ft width 150 ft
---- / hdg 129

(B) RW 31 length 6000 ft width 150 ft
---- / hdg 309

Location; CYRT
Day. 23 / Time. 22.00 Zulu
* Altimeter: 29.73
* Temperature: -02° c. -28.4°f.
* Wind from: 140° Speed 15 kn.
Dewpoint: -03° c.
Visibility: 10 Statute Miles.
Clouds: Overcast 600 ft.

CYRT 232200Z 14015KT 10SM OVC006 M02/M03 A2973 RMK ST8 CIG RAG SLP072


Wind From 140°
Speed 15 kn.

 
 
jpsmedia.com for Web Design SOUNDCLOUD worldairports.se 2018   terms of use